Pasadena 2N

39° 08' 31"N, 76° 30' 27"W, Elevation 43 ft.
Eastern Time

Hourly observations for the last 72 hours

Date Time Temperature (F) Humi-
dity

(%)
Wind
(mph)
Pressure Rain (in) Sun
(W/m2)
ET
(in)
Air Dew 6 Hour 1 Hr 3 Hr 6 Hr Day
Alt
(in)
Sea
Level

(mb)
Max Min
24 09:00 52.9 48.2 84 ENE 3 G 11 30.10 1019.2 0.00 60 0.003
24 08:00 53.1 49.0 53.6 51.7 86 NE 3 G 7 30.09 1019.1 0.00 33 0.002
24 07:00 52.7 47.7 83 ENE 1 G 4 30.08 1018.5 0.00 16 0.002
24 06:00 52.3 47.0 82 NE 2 G 6 30.06 1018.0 0.00 0 0.001
24 05:00 52.1 46.5 81 NE 2 G 5 30.06 1017.9 0.00 0 0.000
24 04:00 51.8 47.4 85 E 1 G 3 30.06 1017.8 0.00 0 0.000
24 03:00 52.4 47.4 83 ESE 0 G 3 30.06 1018.1 0.00 0 0.000
24 02:00 52.4 48.0 54.7 51.4 85 ESE 0 G 2 30.08 1018.5 0.00 0 0.000
24 01:00 52.1 49.0 89 ESE 1 G 2 30.09 1018.9 0.00 0 0.000
24 00:00 51.4 48.6 90 ESE 0 G 2 30.09 1019.1 0.01 0 0.094
23 23:00 52.3 48.9 88 SE 0 G 1 30.09 1018.9 0.01 0 0.094
23 22:00 52.5 49.1 88 Calm 30.09 1019.1 0.01 0 0.094
23 21:00 53.0 48.3 84 Calm 30.09 1019.0 0.01 0 0.093
23 20:00 54.7 48.3 60.3 54.7 79 Calm 30.08 1018.7 0.01 0 0.093
23 19:00 57.2 46.7 68 SE 0 G 1 30.08 1018.8 0.01 23 0.091
23 18:00 58.8 45.4 61 SE 1 G 2 30.07 1018.3 0.01 83 0.088
23 17:00 59.6 45.7 60 S 2 G 5 30.07 1018.2 0.01 192 0.083
23 16:00 59.8 45.5 59 E 2 G 7 30.08 1018.6 0.01 301 0.075
23 15:00 59.4 46.0 61 NE 2 G 5 30.09 1019.1 0.01 517 0.064
23 14:00 59.4 44.2 59.4 48.7 57 ENE 4 G 7 30.11 1019.6 0.01 0.01 0.01 0.01 555 0.053
23 13:00 58.5 45.1 61 SSE 3 G 6 30.13 1020.4 0.00 538 0.037
23 12:00 57.4 46.9 68 NE 4 G 11 30.13 1020.5 0.00 976 0.021
23 11:00 55.4 43.8 65 ENE 6 G 10 30.13 1020.5 0.00 802 0.012
23 10:00 52.7 43.2 70 NE 4 G 9 30.12 1020.1 0.00 192 0.008
23 09:00 49.7 42.4 76 NE 2 G 7 30.12 1019.9 0.00 91 0.006
23 08:00 48.7 40.8 51.0 47.3 74 NE 5 G 12 30.12 1019.9 0.00 137 0.005
23 07:00 47.5 40.0 75 NE 4 G 13 30.10 1019.3 0.00 21 0.004
23 06:00 48.1 39.9 73 NE 4 G 9 30.06 1018.0 0.00 0 0.003
23 05:00 48.5 41.6 77 ENE 1 G 9 30.06 1018.1 0.00 0 0.002
23 04:00 49.3 43.1 79 NE 3 G 8 30.05 1017.5 0.00 0 0.001
23 03:00 50.3 46.3 86 NNE 4 G 9 30.04 1017.3 0.00 0 0.000
23 02:00 51.0 47.6 51.8 47.0 88 NE 5 G 11 30.03 1017.0 0.00 0 0.000
23 01:00 47.8 47.0 97 NW 2 G 3 30.04 1017.2 0.00 0 0.000
23 00:00 47.3 46.2 96 W 0 G 1 30.02 1016.5 0.27 0 0.015
22 23:00 48.8 47.4 95 W 1 G 3 30.02 1016.5 0.27 0 0.015
22 22:00 51.2 49.0 92 NW 2 G 4 29.99 1015.7 0.27 0 0.015
22 21:00 51.3 49.6 94 N 0 G 3 29.98 1015.3 0.27 0 0.015
22 20:00 51.7 50.0 55.1 51.7 94 NNE 0 G 3 29.97 1015.0 0.04 0.10 0.27 0 0.015
22 19:00 52.3 50.3 93 NNE 1 G 4 29.96 1014.7 0.01 0.27 11 0.014
22 18:00 52.4 50.4 93 WSW 1 G 12 29.98 1015.2 0.03 0.26 47 0.013
22 17:00 53.9 51.6 92 N 2 G 9 29.95 1014.4 0.02 0.06 0.23 51 0.012
22 16:00 54.7 52.7 93 NNW 2 G 5 29.94 1013.8 0.04 0.21 111 0.010
22 15:00 54.6 52.9 94 NE 1 G 3 29.94 1014.0 0.17 51 0.008
22 14:00 53.4 51.7 59.0 53.4 94 NNE 4 G 9 29.95 1014.2 0.02 0.15 0.16 0.17 100 0.006
22 13:00 54.9 53.5 95 NE 2 G 10 29.93 1013.7 0.10 0.15 149 0.005
22 12:00 56.3 54.6 94 NE 2 G 6 29.92 1013.2 0.03 0.05 62 0.004
22 11:00 57.8 55.5 92 ENE 3 G 6 29.92 1013.1 0.01 0.01 0.02 37 0.003
22 10:00 58.7 55.5 89 NE 2 G 7 29.90 1012.5 0.01 35 0.002
22 09:00 58.4 55.8 91 NE 2 G 8 29.89 1012.3 0.01 33 0.001
22 08:00 58.5 56.5 58.6 58.0 93 NE 3 G 6 29.89 1012.1 0.01 0.01 26 0.000
22 07:00 58.3 56.6 94 ENE 2 G 6 29.88 1011.7 0.01 0 0.000
22 06:00 58.4 57.0 95 ENE 2 G 5 29.87 1011.4 0.01 0 0.000
22 05:00 58.1 56.4 94 E 1 G 3 29.85 1011.0 0.01 0.01 0.01 0 0.000
22 04:00 58.3 56.3 93 NNE 2 G 9 29.85 1010.8 0.00 0 0.000
22 03:00 58.4 56.1 92 ENE 5 G 7 29.84 1010.6 0.00 0 0.000
22 02:00 58.6 56.0 65.1 58.6 91 NE 1 G 4 29.86 1011.2 0.00 0 0.000
22 01:00 58.9 56.3 91 SSW 0 G 4 29.87 1011.6 0.00 0 0.000
22 00:00 59.7 56.8 90 ENE 5 G 12 29.86 1011.2 0.00 0 0.055
21 23:00 61.8 58.2 88 NE 5 G 13 29.86 1011.3 0.00 0 0.054
21 22:00 63.1 59.8 89 NE 7 G 13 29.86 1011.2 0.00 0 0.053
21 21:00 64.2 61.8 92 NE 3 G 8 29.84 1010.4 0.00 0 0.053
21 20:00 65.1 62.1 69.3 64.1 90 NE 1 G 4 29.81 1009.4 0.00 0 0.052
21 19:00 67.0 62.7 86 ENE 0 G 1 29.79 1008.9 0.00 33 0.051
21 18:00 68.6 62.5 81 NW 2 G 4 29.80 1009.0 0.00 163 0.045
21 17:00 65.6 61.3 86 ENE 1 G 5 29.79 1008.9 0.00 67 0.038
21 16:00 67.2 62.9 86 NE 2 G 7 29.80 1009.3 0.00 343 0.030
21 15:00 64.8 61.2 88 NE 2 G 6 29.84 1010.6 0.00 469 0.022
21 14:00 64.1 61.1 64.4 59.0 90 NE 2 G 5 29.86 1011.2 0.00 299 0.015
21 13:00 63.2 60.8 92 E 1 G 5 29.87 1011.5 0.00 200 0.013
21 12:00 62.8 60.4 92 ENE 2 G 3 29.88 1011.8 0.00 88 0.009
21 11:00 61.4 60.0 95 ENE 2 G 4 29.88 1012.0 0.00 253 0.005
21 10:00 59.9 59.0 97 ENE 2 G 5 29.89 1012.1 0.00 174 0.003

Data generated by WxSolution Version 1.9.0.2, Build 2016.11.28.